createdAt,value
2023-01-15T00:01:03.666Z,16.55
2023-01-15T00:03:31.038Z,18.13
2023-01-15T00:06:03.030Z,19.20
2023-01-15T00:08:29.642Z,18.17
2023-01-15T00:10:56.414Z,17.90
2023-01-15T00:13:23.037Z,16.77
2023-01-15T00:15:49.602Z,15.85
2023-01-15T00:18:16.165Z,18.00
2023-01-15T00:20:42.665Z,16.80
2023-01-15T00:23:29.116Z,16.20
2023-01-15T00:26:15.188Z,17.50
2023-01-15T00:28:41.976Z,17.08
2023-01-15T00:31:08.618Z,15.90
2023-01-15T00:33:35.198Z,16.33
2023-01-15T00:36:01.707Z,15.35
2023-01-15T00:38:28.245Z,15.27
2023-01-15T00:40:54.751Z,14.85
2023-01-15T00:43:21.319Z,14.75
2023-01-15T00:45:47.856Z,15.10
2023-01-15T00:48:14.434Z,14.80
2023-01-15T00:50:40.978Z,14.75
2023-01-15T00:53:07.494Z,14.25
2023-01-15T00:55:34.024Z,13.75
2023-01-15T00:58:00.533Z,13.40
2023-01-15T01:00:27.045Z,14.73
2023-01-15T01:02:53.580Z,13.23
2023-01-15T01:05:20.075Z,13.63
2023-01-15T01:07:46.639Z,12.05
2023-01-15T01:10:13.351Z,12.30
2023-01-15T01:12:39.923Z,12.13
2023-01-15T01:15:07.036Z,11.77
2023-01-15T01:17:34.167Z,12.05
2023-01-15T01:20:00.719Z,11.57
2023-01-15T01:22:27.734Z,11.55
2023-01-15T01:24:54.214Z,11.35
2023-01-15T01:27:20.771Z,11.20
2023-01-15T01:29:47.282Z,11.50
2023-01-15T01:32:15.165Z,10.38
2023-01-15T01:34:41.692Z,10.48
2023-01-15T01:37:08.225Z,10.30
2023-01-15T01:39:34.760Z,10.32
2023-01-15T01:42:01.270Z,9.68
2023-01-15T01:44:33.525Z,10.35
2023-01-15T01:47:03.036Z,9.52
2023-01-15T01:49:30.271Z,9.40
2023-01-15T01:52:02.520Z,8.82
2023-01-15T01:54:34.438Z,9.43
2023-01-15T01:57:01.341Z,9.10
2023-01-15T01:59:27.979Z,9.10
2023-01-15T02:01:54.686Z,9.10
2023-01-15T02:04:24.913Z,9.40
2023-01-15T02:06:51.705Z,8.00
2023-01-15T02:09:18.260Z,8.57
2023-01-15T02:11:44.920Z,8.02
2023-01-15T02:14:20.957Z,7.90
2023-01-15T02:16:50.338Z,8.32
2023-01-15T02:19:39.468Z,8.10
2023-01-15T02:22:56.649Z,8.10
2023-01-15T02:25:32.097Z,7.68
2023-01-15T02:28:16.039Z,7.43
2023-01-15T02:30:47.658Z,7.40
2023-01-15T02:33:18.162Z,6.97
2023-01-15T02:35:50.460Z,7.13
2023-01-15T02:38:22.146Z,6.72
2023-01-15T02:40:51.981Z,6.30
2023-01-15T02:43:21.065Z,7.05
2023-01-15T02:45:52.745Z,6.97
2023-01-15T02:48:23.074Z,6.93
2023-01-15T02:50:55.794Z,6.97
2023-01-15T02:53:27.690Z,6.07
2023-01-15T02:55:59.220Z,6.55
2023-01-15T02:58:32.338Z,5.63
2023-01-15T03:01:01.756Z,5.47
2023-01-15T03:03:54.686Z,5.53
2023-01-15T03:06:30.546Z,5.53
2023-01-15T03:08:57.247Z,5.25
2023-01-15T03:11:23.863Z,5.82
2023-01-15T03:14:03.122Z,5.03
2023-01-15T03:16:53.146Z,5.25
2023-01-15T03:19:36.833Z,5.05
2023-01-15T03:22:11.524Z,5.68
2023-01-15T03:24:43.924Z,5.13
2023-01-15T03:27:11.034Z,4.78
2023-01-15T03:29:42.042Z,5.25
2023-01-15T03:32:08.769Z,4.80
2023-01-15T03:34:53.036Z,4.43
2023-01-15T03:37:23.100Z,5.38
2023-01-15T03:39:50.668Z,4.78
2023-01-15T03:43:15.438Z,4.57
2023-01-15T03:45:43.835Z,4.85
2023-01-15T03:48:30.162Z,4.55
2023-01-15T03:51:13.533Z,4.75
2023-01-15T03:53:51.803Z,4.72
2023-01-15T03:56:31.380Z,4.00
2023-01-15T03:59:32.747Z,4.45
2023-01-15T04:02:02.532Z,3.67
2023-01-15T04:04:29.552Z,4.50
2023-01-15T04:06:57.611Z,3.53
2023-01-15T04:09:24.693Z,4.60
2023-01-15T04:11:51.229Z,4.05
2023-01-15T04:14:17.854Z,3.63
2023-01-15T04:16:44.446Z,4.00
2023-01-15T04:19:10.969Z,4.03
2023-01-15T04:21:37.519Z,4.13
2023-01-15T04:24:04.211Z,3.97
2023-01-15T04:26:30.722Z,3.55
2023-01-15T04:28:57.221Z,3.50
2023-01-15T04:31:23.805Z,3.90
2023-01-15T04:33:50.342Z,3.55
2023-01-15T04:36:17.252Z,3.63
2023-01-15T04:38:43.768Z,4.13
2023-01-15T04:41:29.316Z,4.03
2023-01-15T04:44:08.134Z,3.47
2023-01-15T04:46:42.472Z,3.10
2023-01-15T04:49:12.129Z,3.50
2023-01-15T04:51:39.706Z,3.33
2023-01-15T04:54:08.987Z,3.55
2023-01-15T04:56:45.057Z,3.50
2023-01-15T04:59:12.508Z,2.80
2023-01-15T05:01:39.864Z,3.00
2023-01-15T05:04:07.721Z,2.58
2023-01-15T05:06:34.777Z,2.80
2023-01-15T05:09:01.720Z,2.95
2023-01-15T05:11:29.079Z,3.25
2023-01-15T05:13:55.864Z,2.95
2023-01-15T05:16:26.905Z,2.92
2023-01-15T05:18:56.792Z,3.08
2023-01-15T05:21:25.983Z,2.70
2023-01-15T05:23:55.452Z,3.00
2023-01-15T05:26:23.004Z,3.05
2023-01-15T05:28:52.553Z,2.97
2023-01-15T05:31:20.194Z,2.50
2023-01-15T05:33:48.773Z,2.53
2023-01-15T05:36:18.954Z,2.10
2023-01-15T05:38:45.523Z,2.20
2023-01-15T05:41:33.584Z,2.97
2023-01-15T05:44:02.632Z,2.13
2023-01-15T05:46:29.396Z,2.22
2023-01-15T05:49:03.208Z,2.42
2023-01-15T05:53:58.941Z,2.40
2023-01-15T05:56:25.813Z,2.53
2023-01-15T05:58:52.995Z,2.50
2023-01-15T06:01:20.279Z,2.30
2023-01-15T06:03:48.269Z,2.55
2023-01-15T06:06:17.227Z,2.30
2023-01-15T06:08:44.705Z,1.90
2023-01-15T06:11:11.977Z,2.25
2023-01-15T06:13:41.834Z,2.08
2023-01-15T06:16:10.813Z,1.88
2023-01-15T06:18:38.674Z,1.80
2023-01-15T06:21:07.204Z,2.30
2023-01-15T06:23:36.578Z,2.22
2023-01-15T06:26:05.021Z,1.90
2023-01-15T06:28:32.647Z,1.85
2023-01-15T06:30:59.189Z,1.77
2023-01-15T06:33:26.167Z,1.55
2023-01-15T06:35:53.377Z,1.52
2023-01-15T06:38:19.895Z,2.03
2023-01-15T06:40:46.423Z,1.85
2023-01-15T06:43:32.245Z,1.77
2023-01-15T06:46:17.717Z,1.92
2023-01-15T06:48:44.289Z,1.92
2023-01-15T06:51:13.263Z,1.83
2023-01-15T06:53:39.844Z,2.03
2023-01-15T06:56:06.536Z,2.00
2023-01-15T06:58:33.068Z,1.88
2023-01-15T07:00:59.689Z,1.80
2023-01-15T07:03:27.025Z,1.50
2023-01-15T07:05:53.571Z,1.48
2023-01-15T07:08:20.063Z,1.70
2023-01-15T07:10:46.603Z,1.52
2023-01-15T07:13:13.183Z,1.55
2023-01-15T07:15:39.792Z,1.50
2023-01-15T07:18:06.816Z,1.95
2023-01-15T07:20:33.342Z,1.60
2023-01-15T07:22:59.854Z,1.60
2023-01-15T07:25:26.642Z,1.63
2023-01-15T07:27:53.190Z,1.75
2023-01-15T07:30:19.758Z,1.65
2023-01-15T07:32:46.256Z,2.20
2023-01-15T07:35:12.759Z,1.55
2023-01-15T07:37:40.187Z,1.98
2023-01-15T07:40:07.110Z,1.95
2023-01-15T07:42:52.057Z,2.03
2023-01-15T07:45:36.917Z,2.70
2023-01-15T07:48:22.146Z,2.13
2023-01-15T07:50:48.655Z,1.92
2023-01-15T07:53:15.501Z,2.47
2023-01-15T07:55:42.042Z,2.25
2023-01-15T07:58:08.616Z,2.30
2023-01-15T08:00:35.138Z,1.90
2023-01-15T08:03:03.502Z,1.77
2023-01-15T08:05:30.004Z,2.45
2023-01-15T08:07:56.688Z,2.53
2023-01-15T08:10:25.230Z,2.00
2023-01-15T08:13:10.615Z,2.47
2023-01-15T08:15:42.720Z,2.50
2023-01-15T08:18:09.334Z,2.63
2023-01-15T08:20:37.519Z,2.58
2023-01-15T08:23:04.065Z,2.80
2023-01-15T08:25:30.723Z,2.50
2023-01-15T08:28:02.079Z,2.83
2023-01-15T08:30:28.702Z,3.60
2023-01-15T08:32:59.852Z,2.97
2023-01-15T08:35:26.342Z,2.95
2023-01-15T08:37:52.847Z,4.13
2023-01-15T08:40:19.391Z,4.28
2023-01-15T08:42:45.911Z,4.00
2023-01-15T08:45:12.748Z,4.15
2023-01-15T08:47:39.297Z,4.00
2023-01-15T08:50:08.808Z,4.22
2023-01-15T08:52:35.539Z,4.25
2023-01-15T08:55:02.166Z,4.55
2023-01-15T08:57:28.777Z,4.20
2023-01-15T08:59:55.293Z,5.15
2023-01-15T09:02:21.822Z,5.30
2023-01-15T09:04:48.412Z,5.47
2023-01-15T09:07:15.060Z,5.32
2023-01-15T09:09:41.600Z,5.15
2023-01-15T09:12:08.941Z,5.28
2023-01-15T09:14:58.866Z,5.18
2023-01-15T09:17:22.211Z,5.40
2023-01-15T09:19:48.806Z,5.45
2023-01-15T09:22:15.321Z,5.72
2023-01-15T09:24:41.865Z,6.00
2023-01-15T09:27:11.757Z,6.05
2023-01-15T09:29:38.238Z,5.22
2023-01-15T09:32:04.807Z,5.53
2023-01-15T09:34:31.639Z,6.03
2023-01-15T09:36:58.181Z,5.25
2023-01-15T09:39:24.696Z,4.95
2023-01-15T09:42:22.641Z,6.43
2023-01-15T09:45:17.106Z,6.07
2023-01-15T09:47:56.211Z,5.85
2023-01-15T09:50:40.468Z,6.97
2023-01-15T09:53:10.388Z,6.75
2023-01-15T09:55:45.929Z,7.38
2023-01-15T09:58:14.793Z,7.50
2023-01-15T10:00:46.068Z,6.95
2023-01-15T10:03:48.642Z,7.38
2023-01-15T10:06:41.785Z,6.78
2023-01-15T10:09:37.556Z,6.63
2023-01-15T10:12:35.556Z,7.10
2023-01-15T10:15:11.216Z,7.30
2023-01-15T10:17:48.817Z,6.72
2023-01-15T10:20:57.225Z,6.93
2023-01-15T10:24:11.263Z,6.72
2023-01-15T10:26:40.694Z,6.67
2023-01-15T10:29:41.257Z,5.65
2023-01-15T10:32:24.384Z,5.63
2023-01-15T10:35:08.075Z,5.73
2023-01-15T10:37:41.805Z,6.40
2023-01-15T10:40:31.347Z,6.05
2023-01-15T10:43:20.858Z,6.18
2023-01-15T10:46:00.136Z,5.68
2023-01-15T10:48:45.662Z,5.80
2023-01-15T10:51:29.688Z,5.72
2023-01-15T10:56:45.174Z,5.30
2023-01-15T10:59:33.490Z,5.93
2023-01-15T11:02:02.508Z,5.50
2023-01-15T11:04:32.626Z,5.38
2023-01-15T11:07:01.105Z,4.90
2023-01-15T11:09:34.945Z,6.60
2023-01-15T11:15:05.226Z,5.95
2023-01-15T11:17:56.280Z,6.20
2023-01-15T11:20:29.504Z,6.40
2023-01-15T11:22:57.656Z,6.90
2023-01-15T11:25:32.550Z,6.57
2023-01-15T11:28:05.564Z,6.57
2023-01-15T11:30:34.981Z,7.38
2023-01-15T11:33:06.560Z,7.25
2023-01-15T11:35:34.743Z,7.35
2023-01-15T11:38:06.875Z,8.13
2023-01-15T11:40:33.667Z,7.63
2023-01-15T11:43:18.767Z,7.68
2023-01-15T11:46:11.165Z,7.45
2023-01-15T11:49:05.405Z,6.72
2023-01-15T11:51:41.400Z,6.88
2023-01-15T11:54:13.687Z,6.95
2023-01-15T11:56:44.198Z,7.47
2023-01-15T11:59:14.514Z,8.18
2023-01-15T12:01:57.778Z,7.32
2023-01-15T12:04:36.225Z,7.97
2023-01-15T12:07:05.172Z,6.72
2023-01-15T12:10:10.963Z,6.55
2023-01-15T12:12:44.897Z,6.63
2023-01-15T12:15:23.140Z,7.72
2023-01-15T12:17:52.765Z,6.88
2023-01-15T12:20:56.688Z,6.35
2023-01-15T12:23:38.321Z,6.50
2023-01-15T12:26:24.773Z,6.32
2023-01-15T12:29:16.837Z,6.63
2023-01-15T12:31:52.389Z,6.68
2023-01-15T12:34:58.397Z,7.35
2023-01-15T12:37:28.316Z,7.05
2023-01-15T12:40:03.384Z,6.35
2023-01-15T12:42:49.964Z,6.40
2023-01-15T12:45:21.660Z,5.93
2023-01-15T12:47:57.811Z,7.05
2023-01-15T12:50:47.217Z,6.60
2023-01-15T12:53:17.387Z,5.70
2023-01-15T12:56:14.396Z,5.90
2023-01-15T12:58:50.630Z,6.90
2023-01-15T13:01:32.163Z,5.93
2023-01-15T13:04:18.926Z,5.95
2023-01-15T13:06:50.565Z,5.72
2023-01-15T13:09:32.145Z,6.18
2023-01-15T13:11:58.720Z,6.82
2023-01-15T13:14:25.309Z,6.60
2023-01-15T13:17:05.303Z,6.00
2023-01-15T13:19:34.657Z,7.60
2023-01-15T13:22:07.227Z,7.97
2023-01-15T13:24:53.201Z,8.05
2023-01-15T13:28:10.456Z,8.43
2023-01-15T13:31:06.143Z,9.23
2023-01-15T13:33:46.531Z,8.73
2023-01-15T13:36:27.312Z,9.95
2023-01-15T13:38:57.167Z,10.80
2023-01-15T13:41:49.773Z,11.00
2023-01-15T13:44:19.969Z,10.85
2023-01-15T13:46:49.641Z,10.68
2023-01-15T13:49:20.606Z,11.70
2023-01-15T13:51:49.946Z,12.02
2023-01-15T13:54:20.899Z,11.43
2023-01-15T13:56:47.470Z,11.82
2023-01-15T13:59:41.609Z,12.90
2023-01-15T14:02:27.982Z,14.68
2023-01-15T14:04:55.262Z,15.15
2023-01-15T14:07:32.458Z,14.43
2023-01-15T14:10:17.026Z,15.13
2023-01-15T14:12:53.552Z,15.50
2023-01-15T14:15:32.076Z,16.45
2023-01-15T14:18:32.498Z,15.13
2023-01-15T14:21:20.663Z,15.00
2023-01-15T14:23:54.214Z,15.15
2023-01-15T14:26:42.671Z,17.60
2023-01-15T14:29:15.161Z,16.85
2023-01-15T14:32:01.117Z,16.23
2023-01-15T14:34:31.130Z,16.45
2023-01-15T14:36:59.967Z,15.82
2023-01-15T14:39:36.748Z,16.05
2023-01-15T14:42:41.990Z,16.90
2023-01-15T14:45:19.493Z,15.65
2023-01-15T14:47:47.520Z,16.20
2023-01-15T14:50:38.648Z,16.08
2023-01-15T14:53:11.195Z,17.48
2023-01-15T14:55:58.672Z,15.88
2023-01-15T14:58:48.198Z,17.33
2023-01-15T15:01:37.728Z,15.60
2023-01-15T15:04:38.947Z,16.15
2023-01-15T15:07:14.320Z,18.90
2023-01-15T15:09:47.506Z,19.42
2023-01-15T15:12:30.431Z,19.63
2023-01-15T15:15:08.057Z,19.38
2023-01-15T15:17:58.792Z,21.80
2023-01-15T15:20:47.575Z,20.35
2023-01-15T15:23:39.227Z,21.70
2023-01-15T15:26:19.609Z,22.80
2023-01-15T15:29:07.852Z,21.70
2023-01-15T15:31:57.119Z,22.95
2023-01-15T15:34:32.149Z,22.23
2023-01-15T15:37:02.008Z,20.17
2023-01-15T15:39:39.692Z,22.45
2023-01-15T15:42:32.672Z,21.77
2023-01-15T15:45:18.635Z,23.10
2023-01-15T15:48:03.662Z,21.23
2023-01-15T15:50:33.243Z,21.88
2023-01-15T15:53:04.337Z,22.10
2023-01-15T15:55:43.597Z,22.35
2023-01-15T15:58:24.783Z,22.83
2023-01-15T16:00:52.676Z,24.40
2023-01-15T16:03:27.760Z,23.70
2023-01-15T16:06:03.156Z,24.23
2023-01-15T16:08:31.843Z,25.10
2023-01-15T16:11:05.571Z,25.40
2023-01-15T16:16:16.429Z,23.90
2023-01-15T16:18:50.084Z,25.35
2023-01-15T16:21:27.425Z,24.67
2023-01-15T16:24:02.624Z,24.23
2023-01-15T16:26:41.302Z,23.23
2023-01-15T16:29:19.549Z,23.83
2023-01-15T16:31:46.353Z,22.30
2023-01-15T16:34:22.223Z,22.33
2023-01-15T16:36:48.864Z,23.08
2023-01-15T16:39:30.756Z,22.85
2023-01-15T16:41:59.392Z,21.02
2023-01-15T16:44:44.022Z,21.85
2023-01-15T16:47:26.469Z,22.08
2023-01-15T16:49:53.582Z,21.15
2023-01-15T16:52:52.444Z,21.33
2023-01-15T16:55:35.598Z,20.83
2023-01-15T16:58:22.706Z,19.37
2023-01-15T17:00:53.428Z,18.48
2023-01-15T17:03:22.585Z,17.45
2023-01-15T17:06:16.194Z,17.92
2023-01-15T17:08:48.746Z,16.42
2023-01-15T17:11:21.467Z,17.02
2023-01-15T17:13:48.553Z,15.25
2023-01-15T17:16:20.758Z,15.77
2023-01-15T17:18:49.393Z,15.60
2023-01-15T17:21:28.643Z,14.65
2023-01-15T17:23:56.982Z,14.90
2023-01-15T17:26:26.041Z,14.18
2023-01-15T17:28:53.197Z,14.07
2023-01-15T17:31:25.291Z,13.45
2023-01-15T17:33:52.707Z,12.65
2023-01-15T17:36:19.894Z,12.82
2023-01-15T17:38:46.963Z,11.88
2023-01-15T17:41:15.091Z,12.07
2023-01-15T17:43:41.623Z,11.73
2023-01-15T17:46:08.196Z,11.48
2023-01-15T17:48:35.371Z,10.63
2023-01-15T17:51:02.891Z,10.68
2023-01-15T17:53:29.886Z,10.85
2023-01-15T17:56:14.963Z,10.00
2023-01-15T17:59:00.095Z,8.82
2023-01-15T18:01:47.038Z,9.20
2023-01-15T18:04:36.354Z,8.00
2023-01-15T18:07:03.330Z,8.02
2023-01-15T18:09:30.186Z,7.88
2023-01-15T18:11:56.738Z,7.35
2023-01-15T18:14:24.746Z,7.70
2023-01-15T18:16:52.952Z,6.75
2023-01-15T18:19:19.487Z,7.03
2023-01-15T18:21:46.187Z,6.03
2023-01-15T18:24:12.710Z,6.32
2023-01-15T18:26:41.016Z,5.78
2023-01-15T18:29:09.254Z,5.82
2023-01-15T18:31:37.883Z,5.80
2023-01-15T18:34:05.364Z,5.15
2023-01-15T18:36:32.427Z,5.05
2023-01-15T18:39:06.090Z,5.40
2023-01-15T18:41:36.702Z,5.82
2023-01-15T18:44:29.938Z,5.22
2023-01-15T18:46:59.111Z,4.45
2023-01-15T18:49:26.225Z,4.78
2023-01-15T18:52:11.551Z,4.43
2023-01-15T18:54:38.615Z,4.90
2023-01-15T18:57:05.700Z,4.28
2023-01-15T18:59:33.600Z,4.00
2023-01-15T19:02:00.776Z,4.05
2023-01-15T19:04:27.638Z,3.50
2023-01-15T19:06:54.570Z,4.10
2023-01-15T19:09:24.098Z,3.85
2023-01-15T19:11:52.137Z,4.05
2023-01-15T19:14:38.531Z,3.88
2023-01-15T19:17:23.800Z,3.33
2023-01-15T19:19:50.366Z,3.55
2023-01-15T19:22:35.510Z,4.10
2023-01-15T19:25:02.307Z,3.10
2023-01-15T19:27:28.846Z,2.90
2023-01-15T19:29:55.365Z,3.42
2023-01-15T19:32:21.863Z,2.83
2023-01-15T19:34:48.884Z,3.03
2023-01-15T19:37:15.552Z,2.63
2023-01-15T19:39:42.193Z,2.95
2023-01-15T19:42:28.818Z,2.63
2023-01-15T19:45:13.546Z,2.45
2023-01-15T19:48:00.022Z,2.70
2023-01-15T19:50:34.245Z,2.22
2023-01-15T19:53:00.934Z,2.92
2023-01-15T19:55:30.532Z,3.25
2023-01-15T19:58:00.123Z,3.03
2023-01-15T20:00:28.006Z,2.83
2023-01-15T20:02:55.737Z,2.58
2023-01-15T20:05:23.339Z,2.65
2023-01-15T20:07:50.164Z,2.70
2023-01-15T20:10:19.259Z,2.47
2023-01-15T20:13:04.424Z,2.38
2023-01-15T20:15:31.745Z,2.58
2023-01-15T20:17:58.657Z,2.20
2023-01-15T20:20:26.197Z,2.72
2023-01-15T20:22:52.771Z,2.25
2023-01-15T20:25:19.333Z,2.42
2023-01-15T20:27:45.872Z,2.15
2023-01-15T20:30:14.675Z,2.28
2023-01-15T20:32:44.024Z,2.10
2023-01-15T20:35:13.610Z,2.03
2023-01-15T20:37:40.232Z,2.20
2023-01-15T20:40:07.787Z,2.30
2023-01-15T20:42:53.406Z,2.40
2023-01-15T20:45:19.913Z,2.22
2023-01-15T20:48:05.121Z,1.90
2023-01-15T20:50:34.164Z,1.77
2023-01-15T20:53:00.731Z,2.00
2023-01-15T20:55:45.651Z,2.08
2023-01-15T20:58:21.339Z,2.13
2023-01-15T21:00:47.932Z,1.70
2023-01-15T21:03:14.448Z,2.28
2023-01-15T21:05:40.970Z,1.90
2023-01-15T21:08:07.478Z,2.53
2023-01-15T21:10:34.008Z,2.35
2023-01-15T21:13:00.630Z,1.95
2023-01-15T21:15:27.189Z,1.55
2023-01-15T21:17:53.722Z,2.00
2023-01-15T21:20:20.310Z,2.17
2023-01-15T21:22:47.736Z,1.80
2023-01-15T21:25:14.499Z,1.88
2023-01-15T21:27:41.036Z,2.03
2023-01-15T21:30:09.469Z,1.77
2023-01-15T21:32:36.073Z,2.05
2023-01-15T21:35:02.706Z,2.00
2023-01-15T21:37:29.670Z,2.22
2023-01-15T21:39:56.168Z,1.80
2023-01-15T21:42:41.218Z,1.95
2023-01-15T21:45:08.366Z,1.75
2023-01-15T21:47:36.905Z,1.60
2023-01-15T21:50:05.405Z,1.73
2023-01-15T21:52:33.939Z,1.75
2023-01-15T21:55:00.815Z,1.75
2023-01-15T21:57:31.067Z,1.65
2023-01-15T21:59:57.599Z,1.60
2023-01-15T22:02:24.533Z,1.70
2023-01-15T22:04:51.123Z,1.77
2023-01-15T22:07:18.350Z,2.15
2023-01-15T22:09:45.243Z,2.40
2023-01-15T22:12:13.170Z,2.05
2023-01-15T22:14:40.016Z,2.17
2023-01-15T22:17:07.092Z,1.90
2023-01-15T22:19:33.882Z,1.90
2023-01-15T22:22:03.380Z,1.80
2023-01-15T22:24:32.163Z,2.25
2023-01-15T22:26:59.621Z,2.30
2023-01-15T22:29:29.228Z,1.90
2023-01-15T22:31:55.836Z,1.90
2023-01-15T22:34:23.673Z,1.98
2023-01-15T22:36:51.206Z,1.92
2023-01-15T22:39:18.380Z,1.77
2023-01-15T22:42:04.192Z,2.03
2023-01-15T22:44:31.530Z,1.80
2023-01-15T22:46:58.218Z,1.70
2023-01-15T22:49:25.282Z,1.50
2023-01-15T22:51:51.811Z,1.67
2023-01-15T22:54:19.352Z,1.95
2023-01-15T22:56:46.486Z,1.98
2023-01-15T22:59:13.550Z,1.88
2023-01-15T23:01:40.650Z,1.48
2023-01-15T23:04:20.073Z,1.63
2023-01-15T23:06:47.222Z,1.70
2023-01-15T23:09:13.722Z,2.10
2023-01-15T23:11:40.655Z,1.83
2023-01-15T23:14:10.219Z,1.77
2023-01-15T23:16:36.739Z,1.88
2023-01-15T23:19:03.811Z,1.85
2023-01-15T23:21:30.286Z,1.90
2023-01-15T23:23:58.314Z,1.77
2023-01-15T23:26:26.905Z,1.50
2023-01-15T23:28:53.750Z,1.67
2023-01-15T23:31:21.234Z,1.85
2023-01-15T23:33:48.449Z,1.50
2023-01-15T23:36:15.846Z,1.80
2023-01-15T23:38:44.149Z,1.50
2023-01-15T23:41:14.330Z,1.20
2023-01-15T23:44:00.777Z,1.52
2023-01-15T23:46:35.355Z,1.65
2023-01-15T23:49:10.742Z,1.65
2023-01-15T23:51:38.024Z,1.17
2023-01-15T23:54:05.427Z,1.67
2023-01-15T23:56:32.809Z,1.50
2023-01-15T23:59:00.300Z,1.58
